sensor_id;sensor_type;location;lat;lon;timestamp;pressure;altitude;pressure_sealevel;temperature;humidity
59654;BME280;66556;52.008;5.432;2023-02-22T00:01:18;101591.0;;;13.37;72.14
59654;BME280;66556;52.008;5.432;2023-02-22T00:04:35;101594.0;;;13.48;70.69
59654;BME280;66556;52.008;5.432;2023-02-22T00:06:15;101596.0;;;13.06;72.95
59654;BME280;66556;52.008;5.432;2023-02-22T00:07:53;101603.0;;;13.03;73.42
59654;BME280;66556;52.008;5.432;2023-02-22T00:09:33;101597.0;;;13.29;72.83
59654;BME280;66556;52.008;5.432;2023-02-22T00:12:48;101599.0;;;12.91;73.38
59654;BME280;66556;52.008;5.432;2023-02-22T00:14:26;101596.0;;;12.76;73.83
59654;BME280;66556;52.008;5.432;2023-02-22T00:16:03;101591.0;;;13.0;73.25
59654;BME280;66556;52.008;5.432;2023-02-22T00:17:41;101591.0;;;13.3;72.94
59654;BME280;66556;52.008;5.432;2023-02-22T00:20:54;101588.0;;;13.1;73.47
59654;BME280;66556;52.008;5.432;2023-02-22T00:22:31;101595.0;;;12.75;74.97
59654;BME280;66556;52.008;5.432;2023-02-22T00:24:22;101593.0;;;12.97;73.84
59654;BME280;66556;52.008;5.432;2023-02-22T00:25:59;101590.0;;;13.15;72.75
59654;BME280;66556;52.008;5.432;2023-02-22T00:29:11;101592.0;;;12.92;73.97
59654;BME280;66556;52.008;5.432;2023-02-22T00:30:48;101596.0;;;12.84;75.05
59654;BME280;66556;52.008;5.432;2023-02-22T00:32:25;101596.0;;;13.16;74.78
59654;BME280;66556;52.008;5.432;2023-02-22T00:35:37;101596.0;;;13.51;72.03
59654;BME280;66556;52.008;5.432;2023-02-22T00:37:14;101597.0;;;13.14;73.22
59654;BME280;66556;52.008;5.432;2023-02-22T00:38:50;101597.0;;;13.19;73.36
59654;BME280;66556;52.008;5.432;2023-02-22T00:42:07;101600.0;;;13.25;73.49
59654;BME280;66556;52.008;5.432;2023-02-22T00:43:43;101596.0;;;13.09;74.06
59654;BME280;66556;52.008;5.432;2023-02-22T00:45:20;101592.0;;;12.82;75.3
59654;BME280;66556;52.008;5.432;2023-02-22T00:46:59;101592.0;;;12.82;74.09
59654;BME280;66556;52.008;5.432;2023-02-22T00:50:14;101594.0;;;13.32;73.02
59654;BME280;66556;52.008;5.432;2023-02-22T00:53:27;101580.0;;;13.8;70.56
59654;BME280;66556;52.008;5.432;2023-02-22T00:56:44;101576.0;;;13.57;70.97
59654;BME280;66556;52.008;5.432;2023-02-22T00:58:21;101576.0;;;13.42;72.77
59654;BME280;66556;52.008;5.432;2023-02-22T00:59:57;101577.0;;;13.44;72.17
59654;BME280;66556;52.008;5.432;2023-02-22T01:01:34;101574.0;;;13.14;73.12
59654;BME280;66556;52.008;5.432;2023-02-22T01:04:52;101572.0;;;12.99;73.64
59654;BME280;66556;52.008;5.432;2023-02-22T01:06:28;101567.0;;;13.22;73.83
59654;BME280;66556;52.008;5.432;2023-02-22T01:08:07;101556.0;;;12.75;74.86
59654;BME280;66556;52.008;5.432;2023-02-22T01:11:21;101558.0;;;12.79;74.97
59654;BME280;66556;52.008;5.432;2023-02-22T01:12:59;101556.0;;;12.66;74.97
59654;BME280;66556;52.008;5.432;2023-02-22T01:14:36;101555.0;;;12.59;75.12
59654;BME280;66556;52.008;5.432;2023-02-22T01:16:13;101558.0;;;13.05;73.87
59654;BME280;66556;52.008;5.432;2023-02-22T01:19:27;101564.0;;;12.79;74.36
59654;BME280;66556;52.008;5.432;2023-02-22T01:21:04;101564.0;;;12.84;74.36
59654;BME280;66556;52.008;5.432;2023-02-22T01:22:43;101564.0;;;12.66;74.42
59654;BME280;66556;52.008;5.432;2023-02-22T01:25:57;101564.0;;;12.82;74.23
59654;BME280;66556;52.008;5.432;2023-02-22T01:27:34;101565.0;;;12.83;74.16
59654;BME280;66556;52.008;5.432;2023-02-22T01:29:15;101569.0;;;12.96;73.75
59654;BME280;66556;52.008;5.432;2023-02-22T01:30:55;101566.0;;;12.51;75.17
59654;BME280;66556;52.008;5.432;2023-02-22T01:34:12;101563.0;;;12.33;74.72
59654;BME280;66556;52.008;5.432;2023-02-22T01:35:50;101565.0;;;12.31;75.08
59654;BME280;66556;52.008;5.432;2023-02-22T01:37:26;101558.0;;;12.33;75.24
59654;BME280;66556;52.008;5.432;2023-02-22T01:40:41;101552.0;;;12.58;75.39
59654;BME280;66556;52.008;5.432;2023-02-22T01:42:17;101550.0;;;12.35;75.7
59654;BME280;66556;52.008;5.432;2023-02-22T01:43:53;101545.0;;;12.21;76.25
59654;BME280;66556;52.008;5.432;2023-02-22T01:47:39;101539.0;;;12.23;76.12
59654;BME280;66556;52.008;5.432;2023-02-22T01:50:54;101539.0;;;12.01;76.25
59654;BME280;66556;52.008;5.432;2023-02-22T01:52:34;101541.0;;;11.95;77.09
59654;BME280;66556;52.008;5.432;2023-02-22T01:54:17;101533.0;;;12.03;76.05
59654;BME280;66556;52.008;5.432;2023-02-22T01:57:35;101534.0;;;12.14;75.45
59654;BME280;66556;52.008;5.432;2023-02-22T01:59:13;101530.0;;;12.21;75.25
59654;BME280;66556;52.008;5.432;2023-02-22T02:00:49;101526.0;;;11.95;76.37
59654;BME280;66556;52.008;5.432;2023-02-22T02:02:26;101527.0;;;12.13;75.58
59654;BME280;66556;52.008;5.432;2023-02-22T02:05:46;101531.0;;;12.11;75.83
59654;BME280;66556;52.008;5.432;2023-02-22T02:07:25;101534.0;;;11.94;76.84
59654;BME280;66556;52.008;5.432;2023-02-22T02:09:07;101528.0;;;11.82;76.84
59654;BME280;66556;52.008;5.432;2023-02-22T02:10:47;101530.0;;;11.88;76.55
59654;BME280;66556;52.008;5.432;2023-02-22T02:14:05;101533.0;;;12.12;75.97
59654;BME280;66556;52.008;5.432;2023-02-22T02:15:43;101528.0;;;11.77;76.11
59654;BME280;66556;52.008;5.432;2023-02-22T02:17:20;101523.0;;;11.7;77.09
59654;BME280;66556;52.008;5.432;2023-02-22T02:18:58;101521.0;;;11.89;75.63
59654;BME280;66556;52.008;5.432;2023-02-22T02:22:29;101515.0;;;12.03;74.98
59654;BME280;66556;52.008;5.432;2023-02-22T02:24:32;101511.0;;;12.1;74.86
59654;BME280;66556;52.008;5.432;2023-02-22T02:27:11;101508.0;;;11.82;75.94
59654;BME280;66556;52.008;5.432;2023-02-22T02:29:26;101508.0;;;12.03;75.36
59654;BME280;66556;52.008;5.432;2023-02-22T02:32:51;101501.0;;;11.96;75.09
59654;BME280;66556;52.008;5.432;2023-02-22T02:34:35;101496.0;;;11.86;74.36
59654;BME280;66556;52.008;5.432;2023-02-22T02:36:19;101494.0;;;11.82;75.58
59654;BME280;66556;52.008;5.432;2023-02-22T02:38:05;101490.0;;;12.06;74.7
59654;BME280;66556;52.008;5.432;2023-02-22T02:41:34;101490.0;;;12.32;73.67
59654;BME280;66556;52.008;5.432;2023-02-22T02:43:19;101492.0;;;11.85;74.7
59654;BME280;66556;52.008;5.432;2023-02-22T02:45:07;101492.0;;;12.12;74.66
59654;BME280;66556;52.008;5.432;2023-02-22T02:46:50;101491.0;;;12.1;74.33
59654;BME280;66556;52.008;5.432;2023-02-22T02:48:33;101490.0;;;12.13;74.09
59654;BME280;66556;52.008;5.432;2023-02-22T02:51:55;101486.0;;;11.88;75.06
59654;BME280;66556;52.008;5.432;2023-02-22T02:53:35;101480.0;;;11.98;74.7
59654;BME280;66556;52.008;5.432;2023-02-22T02:55:13;101478.0;;;12.26;73.41
59654;BME280;66556;52.008;5.432;2023-02-22T02:56:53;101472.0;;;12.09;74.84
59654;BME280;66556;52.008;5.432;2023-02-22T03:00:24;101470.0;;;12.1;74.02
59654;BME280;66556;52.008;5.432;2023-02-22T03:02:16;101471.0;;;12.34;73.14
59654;BME280;66556;52.008;5.432;2023-02-22T03:04:22;101471.0;;;12.02;74.08
59654;BME280;66556;52.008;5.432;2023-02-22T03:06:13;101468.0;;;11.66;75.33
59654;BME280;66556;52.008;5.432;2023-02-22T03:08:19;101467.0;;;11.94;75.22
59654;BME280;66556;52.008;5.432;2023-02-22T03:10:14;101464.0;;;11.93;74.61
59654;BME280;66556;52.008;5.432;2023-02-22T03:12:09;101462.0;;;11.73;75.11
59654;BME280;66556;52.008;5.432;2023-02-22T03:14:02;101463.0;;;11.73;74.92
59654;BME280;66556;52.008;5.432;2023-02-22T03:15:49;101461.0;;;11.85;75.3
59654;BME280;66556;52.008;5.432;2023-02-22T03:19:20;101455.0;;;11.73;75.36
59654;BME280;66556;52.008;5.432;2023-02-22T03:21:09;101451.0;;;11.75;75.8
59654;BME280;66556;52.008;5.432;2023-02-22T03:22:57;101448.0;;;11.92;75.23
59654;BME280;66556;52.008;5.432;2023-02-22T03:24:38;101448.0;;;12.01;74.84
59654;BME280;66556;52.008;5.432;2023-02-22T03:26:28;101445.0;;;11.76;74.61
59654;BME280;66556;52.008;5.432;2023-02-22T03:28:14;101440.0;;;11.66;75.84
59654;BME280;66556;52.008;5.432;2023-02-22T03:31:39;101441.0;;;11.68;74.86
59654;BME280;66556;52.008;5.432;2023-02-22T03:33:24;101441.0;;;11.51;76.41
59654;BME280;66556;52.008;5.432;2023-02-22T03:35:05;101447.0;;;11.89;75.13
59654;BME280;66556;52.008;5.432;2023-02-22T03:36:46;101444.0;;;12.16;75.05
59654;BME280;66556;52.008;5.432;2023-02-22T03:40:16;101441.0;;;12.44;73.03
59654;BME280;66556;52.008;5.432;2023-02-22T03:41:55;101443.0;;;12.13;73.86
59654;BME280;66556;52.008;5.432;2023-02-22T03:43:37;101443.0;;;11.69;75.39
59654;BME280;66556;52.008;5.432;2023-02-22T03:45:19;101433.0;;;11.73;76.11
59654;BME280;66556;52.008;5.432;2023-02-22T03:46:59;101442.0;;;12.17;74.53
59654;BME280;66556;52.008;5.432;2023-02-22T03:50:27;101436.0;;;11.69;75.61
59654;BME280;66556;52.008;5.432;2023-02-22T03:52:07;101433.0;;;12.02;74.83
59654;BME280;66556;52.008;5.432;2023-02-22T03:53:45;101434.0;;;11.54;77.38
59654;BME280;66556;52.008;5.432;2023-02-22T03:55:22;101433.0;;;11.66;76.3
59654;BME280;66556;52.008;5.432;2023-02-22T03:58:48;101432.0;;;11.78;76.49
59654;BME280;66556;52.008;5.432;2023-02-22T04:00:28;101424.0;;;11.68;76.72
59654;BME280;66556;52.008;5.432;2023-02-22T04:02:05;101426.0;;;11.75;76.39
59654;BME280;66556;52.008;5.432;2023-02-22T04:03:42;101422.0;;;11.61;76.89
59654;BME280;66556;52.008;5.432;2023-02-22T04:06:56;101419.0;;;11.53;77.05
59654;BME280;66556;52.008;5.432;2023-02-22T04:08:33;101417.0;;;11.33;78.05
59654;BME280;66556;52.008;5.432;2023-02-22T04:10:12;101415.0;;;11.27;79.08
59654;BME280;66556;52.008;5.432;2023-02-22T04:13:27;101416.0;;;11.65;77.58
59654;BME280;66556;52.008;5.432;2023-02-22T04:15:07;101411.0;;;11.86;75.81
59654;BME280;66556;52.008;5.432;2023-02-22T04:16:44;101407.0;;;12.24;75.45
59654;BME280;66556;52.008;5.432;2023-02-22T04:18:19;101413.0;;;11.77;76.41
59654;BME280;66556;52.008;5.432;2023-02-22T04:21:34;101407.0;;;11.59;77.14
59654;BME280;66556;52.008;5.432;2023-02-22T04:23:10;101401.0;;;11.35;77.97
59654;BME280;66556;52.008;5.432;2023-02-22T04:24:48;101397.0;;;11.54;77.73
59654;BME280;66556;52.008;5.432;2023-02-22T04:28:01;101393.0;;;11.55;77.53
59654;BME280;66556;52.008;5.432;2023-02-22T04:29:38;101395.0;;;11.43;78.61
59654;BME280;66556;52.008;5.432;2023-02-22T04:31:15;101396.0;;;11.88;77.69
59654;BME280;66556;52.008;5.432;2023-02-22T04:32:52;101389.0;;;11.41;78.19
59654;BME280;66556;52.008;5.432;2023-02-22T04:36:05;101391.0;;;12.06;76.03
59654;BME280;66556;52.008;5.432;2023-02-22T04:37:41;101385.0;;;12.38;74.72
59654;BME280;66556;52.008;5.432;2023-02-22T04:39:17;101386.0;;;12.45;73.33
59654;BME280;66556;52.008;5.432;2023-02-22T04:42:29;101385.0;;;12.2;73.84
59654;BME280;66556;52.008;5.432;2023-02-22T04:44:06;101387.0;;;12.25;73.69
59654;BME280;66556;52.008;5.432;2023-02-22T04:45:42;101386.0;;;11.91;75.64
59654;BME280;66556;52.008;5.432;2023-02-22T04:48:54;101380.0;;;11.87;74.91
59654;BME280;66556;52.008;5.432;2023-02-22T04:50:30;101373.0;;;11.98;75.81
59654;BME280;66556;52.008;5.432;2023-02-22T04:52:07;101371.0;;;11.56;76.36
59654;BME280;66556;52.008;5.432;2023-02-22T04:55:20;101368.0;;;12.28;75.14
59654;BME280;66556;52.008;5.432;2023-02-22T04:56:56;101362.0;;;12.04;75.12
59654;BME280;66556;52.008;5.432;2023-02-22T04:58:33;101365.0;;;11.92;75.64
59654;BME280;66556;52.008;5.432;2023-02-22T05:00:14;101360.0;;;11.44;78.47
59654;BME280;66556;52.008;5.432;2023-02-22T05:03:29;101360.0;;;11.52;79.08
59654;BME280;66556;52.008;5.432;2023-02-22T05:05:05;101348.0;;;11.19;79.33
59654;BME280;66556;52.008;5.432;2023-02-22T05:06:42;101347.0;;;11.91;76.77
59654;BME280;66556;52.008;5.432;2023-02-22T05:09:54;101341.0;;;11.68;77.89
59654;BME280;66556;52.008;5.432;2023-02-22T05:11:30;101340.0;;;11.67;76.98
59654;BME280;66556;52.008;5.432;2023-02-22T05:13:06;101340.0;;;11.71;77.58
59654;BME280;66556;52.008;5.432;2023-02-22T05:14:43;101335.0;;;12.16;75.81
59654;BME280;66556;52.008;5.432;2023-02-22T05:17:56;101338.0;;;12.11;75.95
59654;BME280;66556;52.008;5.432;2023-02-22T05:19:32;101336.0;;;11.76;77.94
59654;BME280;66556;52.008;5.432;2023-02-22T05:21:08;101340.0;;;12.13;75.58
59654;BME280;66556;52.008;5.432;2023-02-22T05:24:21;101342.0;;;12.1;76.58
59654;BME280;66556;52.008;5.432;2023-02-22T05:25:57;101342.0;;;11.89;77.42
59654;BME280;66556;52.008;5.432;2023-02-22T05:27:33;101343.0;;;11.16;80.37
59654;BME280;66556;52.008;5.432;2023-02-22T05:30:47;101344.0;;;11.34;80.41
59654;BME280;66556;52.008;5.432;2023-02-22T05:32:23;101341.0;;;11.51;79.22
59654;BME280;66556;52.008;5.432;2023-02-22T05:33:59;101338.0;;;11.64;79.95
59654;BME280;66556;52.008;5.432;2023-02-22T05:35:36;101336.0;;;11.35;81.17
59654;BME280;66556;52.008;5.432;2023-02-22T05:38:48;101339.0;;;11.41;80.44
59654;BME280;66556;52.008;5.432;2023-02-22T05:40:26;101339.0;;;10.93;82.37
59654;BME280;66556;52.008;5.432;2023-02-22T05:42:03;101337.0;;;11.11;82.41
59654;BME280;66556;52.008;5.432;2023-02-22T05:45:18;101340.0;;;11.26;81.66
59654;BME280;66556;52.008;5.432;2023-02-22T05:46:55;101337.0;;;11.39;81.47
59654;BME280;66556;52.008;5.432;2023-02-22T05:48:32;101333.0;;;11.31;80.91
59654;BME280;66556;52.008;5.432;2023-02-22T05:51:46;101326.0;;;11.44;79.64
59654;BME280;66556;52.008;5.432;2023-02-22T05:53:22;101326.0;;;11.27;80.41
59654;BME280;66556;52.008;5.432;2023-02-22T05:54:59;101324.0;;;11.36;81.36
59654;BME280;66556;52.008;5.432;2023-02-22T05:56:36;101317.0;;;11.53;80.86
59654;BME280;66556;52.008;5.432;2023-02-22T05:59:49;101313.0;;;11.71;80.47
59654;BME280;66556;52.008;5.432;2023-02-22T06:01:25;101315.0;;;11.65;80.08
59654;BME280;66556;52.008;5.432;2023-02-22T06:03:03;101320.0;;;11.95;79.69
59654;BME280;66556;52.008;5.432;2023-02-22T06:06:20;101321.0;;;11.44;80.44
59654;BME280;66556;52.008;5.432;2023-02-22T06:07:56;101313.0;;;11.82;79.41
59654;BME280;66556;52.008;5.432;2023-02-22T06:09:32;101315.0;;;11.57;80.48
59654;BME280;66556;52.008;5.432;2023-02-22T06:12:48;101313.0;;;11.41;81.02
59654;BME280;66556;52.008;5.432;2023-02-22T06:14:25;101315.0;;;11.58;80.98
59654;BME280;66556;52.008;5.432;2023-02-22T06:16:01;101316.0;;;11.58;81.52
59654;BME280;66556;52.008;5.432;2023-02-22T06:17:41;101316.0;;;11.62;80.78
59654;BME280;66556;52.008;5.432;2023-02-22T06:20:53;101317.0;;;11.22;82.22
59654;BME280;66556;52.008;5.432;2023-02-22T06:22:29;101310.0;;;11.71;81.31
59654;BME280;66556;52.008;5.432;2023-02-22T06:24:06;101311.0;;;11.52;81.25
59654;BME280;66556;52.008;5.432;2023-02-22T06:27:18;101311.0;;;11.18;82.71
59654;BME280;66556;52.008;5.432;2023-02-22T06:28:54;101311.0;;;10.98;83.57
59654;BME280;66556;52.008;5.432;2023-02-22T06:30:30;101309.0;;;11.12;83.5
59654;BME280;66556;52.008;5.432;2023-02-22T06:32:06;101307.0;;;10.8;84.23
59654;BME280;66556;52.008;5.432;2023-02-22T06:35:19;101298.0;;;10.51;85.18
59654;BME280;66556;52.008;5.432;2023-02-22T06:36:56;101294.0;;;11.14;82.68
59654;BME280;66556;52.008;5.432;2023-02-22T06:38:32;101288.0;;;11.05;82.65
59654;BME280;66556;52.008;5.432;2023-02-22T06:41:49;101294.0;;;11.21;82.61
59654;BME280;66556;52.008;5.432;2023-02-22T06:43:25;101286.0;;;11.45;81.55
59654;BME280;66556;52.008;5.432;2023-02-22T06:45:02;101283.0;;;11.71;80.34
59654;BME280;66556;52.008;5.432;2023-02-22T06:48:21;101278.0;;;11.28;81.23
59654;BME280;66556;52.008;5.432;2023-02-22T06:49:58;101285.0;;;11.22;83.07
59654;BME280;66556;52.008;5.432;2023-02-22T06:51:35;101280.0;;;10.99;83.2
59654;BME280;66556;52.008;5.432;2023-02-22T06:53:13;101286.0;;;11.09;82.61
59654;BME280;66556;52.008;5.432;2023-02-22T06:56:27;101275.0;;;10.96;83.94
59654;BME280;66556;52.008;5.432;2023-02-22T06:58:04;101280.0;;;11.19;81.99
59654;BME280;66556;52.008;5.432;2023-02-22T06:59:41;101274.0;;;11.26;82.27
59654;BME280;66556;52.008;5.432;2023-02-22T07:02:55;101281.0;;;11.3;81.11
59654;BME280;66556;52.008;5.432;2023-02-22T07:04:31;101285.0;;;11.14;82.41
59654;BME280;66556;52.008;5.432;2023-02-22T07:06:08;101280.0;;;11.29;82.19
59654;BME280;66556;52.008;5.432;2023-02-22T07:07:46;101284.0;;;10.91;84.59
59654;BME280;66556;52.008;5.432;2023-02-22T07:11:00;101285.0;;;11.27;82.61
59654;BME280;66556;52.008;5.432;2023-02-22T07:12:36;101282.0;;;11.35;82.12
59654;BME280;66556;52.008;5.432;2023-02-22T07:14:15;101283.0;;;11.42;82.29
59654;BME280;66556;52.008;5.432;2023-02-22T07:17:28;101280.0;;;11.99;80.06
59654;BME280;66556;52.008;5.432;2023-02-22T07:19:05;101282.0;;;11.62;81.66
59654;BME280;66556;52.008;5.432;2023-02-22T07:20:41;101280.0;;;11.39;82.36
59654;BME280;66556;52.008;5.432;2023-02-22T07:22:18;101281.0;;;11.28;81.94
59654;BME280;66556;52.008;5.432;2023-02-22T07:25:33;101276.0;;;11.59;82.64
59654;BME280;66556;52.008;5.432;2023-02-22T07:27:09;101281.0;;;11.83;80.99
59654;BME280;66556;52.008;5.432;2023-02-22T07:28:46;101278.0;;;11.72;81.19
59654;BME280;66556;52.008;5.432;2023-02-22T07:32:04;101278.0;;;11.54;81.91
59654;BME280;66556;52.008;5.432;2023-02-22T07:33:41;101286.0;;;11.72;81.45
59654;BME280;66556;52.008;5.432;2023-02-22T07:35:20;101291.0;;;11.74;81.69
59654;BME280;66556;52.008;5.432;2023-02-22T07:36:57;101294.0;;;11.47;82.24
59654;BME280;66556;52.008;5.432;2023-02-22T07:40:10;101302.0;;;11.58;82.22
59654;BME280;66556;52.008;5.432;2023-02-22T07:41:47;101295.0;;;11.49;82.59
59654;BME280;66556;52.008;5.432;2023-02-22T07:43:26;101295.0;;;11.76;82.05
59654;BME280;66556;52.008;5.432;2023-02-22T07:46:40;101296.0;;;11.54;82.94
59654;BME280;66556;52.008;5.432;2023-02-22T07:48:18;101302.0;;;11.0;84.55
59654;BME280;66556;52.008;5.432;2023-02-22T07:49:56;101314.0;;;11.08;85.05
59654;BME280;66556;52.008;5.432;2023-02-22T07:53:14;101314.0;;;11.11;85.67
59654;BME280;66556;52.008;5.432;2023-02-22T07:54:51;101311.0;;;11.35;85.36
59654;BME280;66556;52.008;5.432;2023-02-22T07:56:27;101312.0;;;11.46;83.56
59654;BME280;66556;52.008;5.432;2023-02-22T08:01:21;101311.0;;;11.15;85.07
59654;BME280;66556;52.008;5.432;2023-02-22T08:02:59;101310.0;;;11.18;85.38
59654;BME280;66556;52.008;5.432;2023-02-22T08:04:35;101299.0;;;11.5;84.52
59654;BME280;66556;52.008;5.432;2023-02-22T08:07:47;101313.0;;;11.47;84.46
59654;BME280;66556;52.008;5.432;2023-02-22T08:09:23;101308.0;;;11.54;84.36
59654;BME280;66556;52.008;5.432;2023-02-22T08:11:00;101312.0;;;11.46;84.09
59654;BME280;66556;52.008;5.432;2023-02-22T08:12:37;101312.0;;;11.64;84.0
59654;BME280;66556;52.008;5.432;2023-02-22T08:15:53;101311.0;;;11.49;85.1
59654;BME280;66556;52.008;5.432;2023-02-22T08:17:29;101313.0;;;11.37;84.77
59654;BME280;66556;52.008;5.432;2023-02-22T08:19:05;101309.0;;;11.32;85.55
59654;BME280;66556;52.008;5.432;2023-02-22T08:22:21;101309.0;;;11.5;85.98
59654;BME280;66556;52.008;5.432;2023-02-22T08:23:57;101307.0;;;11.92;83.6
59654;BME280;66556;52.008;5.432;2023-02-22T08:25:34;101302.0;;;11.89;82.85
59654;BME280;66556;52.008;5.432;2023-02-22T08:27:11;101306.0;;;11.47;85.18
59654;BME280;66556;52.008;5.432;2023-02-22T08:30:24;101306.0;;;11.37;84.83
59654;BME280;66556;52.008;5.432;2023-02-22T08:32:00;101310.0;;;11.63;84.42
59654;BME280;66556;52.008;5.432;2023-02-22T08:33:37;101312.0;;;11.6;85.18
59654;BME280;66556;52.008;5.432;2023-02-22T08:36:52;101311.0;;;11.69;84.49
59654;BME280;66556;52.008;5.432;2023-02-22T08:38:30;101314.0;;;11.66;84.71
59654;BME280;66556;52.008;5.432;2023-02-22T08:40:08;101312.0;;;11.78;84.94
59654;BME280;66556;52.008;5.432;2023-02-22T08:43:22;101312.0;;;11.62;84.06
59654;BME280;66556;52.008;5.432;2023-02-22T08:44:58;101311.0;;;12.17;83.15
59654;BME280;66556;52.008;5.432;2023-02-22T08:46:35;101311.0;;;11.92;82.97
59654;BME280;66556;52.008;5.432;2023-02-22T08:48:12;101307.0;;;11.88;83.7
59654;BME280;66556;52.008;5.432;2023-02-22T08:51:24;101306.0;;;11.68;84.98
59654;BME280;66556;52.008;5.432;2023-02-22T08:53:04;101293.0;;;11.73;84.78
59654;BME280;66556;52.008;5.432;2023-02-22T08:54:40;101295.0;;;12.03;83.55
59654;BME280;66556;52.008;5.432;2023-02-22T08:57:53;101290.0;;;11.93;84.38
59654;BME280;66556;52.008;5.432;2023-02-22T08:59:29;101281.0;;;11.99;84.45
59654;BME280;66556;52.008;5.432;2023-02-22T09:01:05;101272.0;;;11.9;84.45
59654;BME280;66556;52.008;5.432;2023-02-22T09:04:18;101263.0;;;12.39;82.7
59654;BME280;66556;52.008;5.432;2023-02-22T09:05:55;101267.0;;;12.27;82.76
59654;BME280;66556;52.008;5.432;2023-02-22T09:07:31;101268.0;;;12.14;83.11
59654;BME280;66556;52.008;5.432;2023-02-22T09:09:08;101264.0;;;12.08;83.63
59654;BME280;66556;52.008;5.432;2023-02-22T09:12:22;101269.0;;;12.63;81.67
59654;BME280;66556;52.008;5.432;2023-02-22T09:13:58;101269.0;;;12.39;82.35
59654;BME280;66556;52.008;5.432;2023-02-22T09:15:35;101264.0;;;12.42;82.7
59654;BME280;66556;52.008;5.432;2023-02-22T09:18:49;101266.0;;;12.53;81.44
59654;BME280;66556;52.008;5.432;2023-02-22T09:20:26;101265.0;;;12.61;81.42
59654;BME280;66556;52.008;5.432;2023-02-22T09:22:03;101260.0;;;12.85;81.05
59654;BME280;66556;52.008;5.432;2023-02-22T09:23:40;101263.0;;;12.83;80.69
59654;BME280;66556;52.008;5.432;2023-02-22T09:26:54;101264.0;;;12.97;80.61
59654;BME280;66556;52.008;5.432;2023-02-22T09:28:29;101268.0;;;12.72;82.1
59654;BME280;66556;52.008;5.432;2023-02-22T09:30:16;101260.0;;;12.96;80.25
59654;BME280;66556;52.008;5.432;2023-02-22T09:33:31;101258.0;;;12.84;80.53
59654;BME280;66556;52.008;5.432;2023-02-22T09:35:07;101251.0;;;12.7;80.19
59654;BME280;66556;52.008;5.432;2023-02-22T09:36:46;101249.0;;;12.97;79.67
59654;BME280;66556;52.008;5.432;2023-02-22T09:38:25;101250.0;;;12.66;80.88
59654;BME280;66556;52.008;5.432;2023-02-22T09:41:43;101253.0;;;12.98;80.77
59654;BME280;66556;52.008;5.432;2023-02-22T09:43:35;101253.0;;;12.82;81.77
59654;BME280;66556;52.008;5.432;2023-02-22T09:45:15;101247.0;;;13.11;80.77
59654;BME280;66556;52.008;5.432;2023-02-22T09:46:56;101251.0;;;13.5;79.27
59654;BME280;66556;52.008;5.432;2023-02-22T09:50:21;101243.0;;;13.33;79.52
59654;BME280;66556;52.008;5.432;2023-02-22T09:52:01;101247.0;;;13.1;80.33
59654;BME280;66556;52.008;5.432;2023-02-22T09:53:44;101246.0;;;13.04;79.27
59654;BME280;66556;52.008;5.432;2023-02-22T09:55:30;101239.0;;;12.76;80.3
59654;BME280;66556;52.008;5.432;2023-02-22T09:57:13;101231.0;;;12.92;80.53
59654;BME280;66556;52.008;5.432;2023-02-22T10:00:36;101230.0;;;12.96;80.19
59654;BME280;66556;52.008;5.432;2023-02-22T10:02:22;101226.0;;;13.25;80.67
59654;BME280;66556;52.008;5.432;2023-02-22T10:04:04;101221.0;;;13.43;79.91
59654;BME280;66556;52.008;5.432;2023-02-22T10:05:51;101216.0;;;13.33;78.64
59654;BME280;66556;52.008;5.432;2023-02-22T10:09:10;101215.0;;;13.0;79.36
59654;BME280;66556;52.008;5.432;2023-02-22T10:10:58;101214.0;;;13.24;79.41
59654;BME280;66556;52.008;5.432;2023-02-22T10:12:53;101212.0;;;13.47;79.06
59654;BME280;66556;52.008;5.432;2023-02-22T10:14:47;101209.0;;;13.75;78.81
59654;BME280;66556;52.008;5.432;2023-02-22T10:16:34;101206.0;;;13.23;78.56
59654;BME280;66556;52.008;5.432;2023-02-22T10:18:44;101202.0;;;14.04;76.86
59654;BME280;66556;52.008;5.432;2023-02-22T10:20:46;101208.0;;;14.1;76.61
59654;BME280;66556;52.008;5.432;2023-02-22T10:22:37;101215.0;;;13.62;77.86
59654;BME280;66556;52.008;5.432;2023-02-22T10:24:31;101220.0;;;14.1;77.02
59654;BME280;66556;52.008;5.432;2023-02-22T10:27:55;101214.0;;;13.55;76.86
59654;BME280;66556;52.008;5.432;2023-02-22T10:29:37;101208.0;;;13.84;76.52
59654;BME280;66556;52.008;5.432;2023-02-22T10:31:20;101215.0;;;14.4;74.83
59654;BME280;66556;52.008;5.432;2023-02-22T10:33:04;101207.0;;;14.03;75.22
59654;BME280;66556;52.008;5.432;2023-02-22T10:36:26;101212.0;;;14.0;76.84
59654;BME280;66556;52.008;5.432;2023-02-22T10:38:12;101215.0;;;14.38;75.52
59654;BME280;66556;52.008;5.432;2023-02-22T10:39:57;101212.0;;;13.96;75.91
59654;BME280;66556;52.008;5.432;2023-02-22T10:41:40;101211.0;;;14.5;75.52
59654;BME280;66556;52.008;5.432;2023-02-22T10:43:22;101210.0;;;14.99;73.34
59654;BME280;66556;52.008;5.432;2023-02-22T10:46:37;101217.0;;;14.36;75.22
59654;BME280;66556;52.008;5.432;2023-02-22T10:48:16;101216.0;;;14.39;74.5
59654;BME280;66556;52.008;5.432;2023-02-22T10:49:56;101208.0;;;14.79;73.13
59654;BME280;66556;52.008;5.432;2023-02-22T10:51:34;101210.0;;;14.65;72.38
59654;BME280;66556;52.008;5.432;2023-02-22T10:54:50;101203.0;;;14.56;72.86
59654;BME280;66556;52.008;5.432;2023-02-22T10:56:29;101205.0;;;14.49;73.52
59654;BME280;66556;52.008;5.432;2023-02-22T10:58:07;101209.0;;;14.59;73.69
59654;BME280;66556;52.008;5.432;2023-02-22T11:01:24;101215.0;;;14.89;72.87
59654;BME280;66556;52.008;5.432;2023-02-22T11:03:05;101210.0;;;14.69;73.05
59654;BME280;66556;52.008;5.432;2023-02-22T11:04:52;101208.0;;;14.7;73.55
59654;BME280;66556;52.008;5.432;2023-02-22T11:06:32;101215.0;;;14.51;73.33
59654;BME280;66556;52.008;5.432;2023-02-22T11:09:59;101217.0;;;14.94;71.73
59654;BME280;66556;52.008;5.432;2023-02-22T11:11:41;101218.0;;;14.33;73.66
59654;BME280;66556;52.008;5.432;2023-02-22T11:13:23;101212.0;;;14.48;72.99
59654;BME280;66556;52.008;5.432;2023-02-22T11:15:26;101215.0;;;14.82;72.0